sensor_id;sensor_type;location;lat;lon;timestamp;temperature;humidity
40255;DHT22;25973;52.368;4.940;2022-08-01T00:02:10;20.40;99.90
40255;DHT22;25973;52.368;4.940;2022-08-01T00:04:35;20.40;99.90
40255;DHT22;25973;52.368;4.940;2022-08-01T00:07:01;20.40;99.90
40255;DHT22;25973;52.368;4.940;2022-08-01T00:09:26;20.40;99.90
40255;DHT22;25973;52.368;4.940;2022-08-01T00:11:52;20.40;99.90
40255;DHT22;25973;52.368;4.940;2022-08-01T00:14:17;20.30;99.90
40255;DHT22;25973;52.368;4.940;2022-08-01T00:16:43;20.30;99.90
40255;DHT22;25973;52.368;4.940;2022-08-01T00:19:09;20.30;99.90
40255;DHT22;25973;52.368;4.940;2022-08-01T00:21:34;20.30;99.90
40255;DHT22;25973;52.368;4.940;2022-08-01T00:24:00;20.30;99.90
40255;DHT22;25973;52.368;4.940;2022-08-01T00:26:25;20.30;99.90
40255;DHT22;25973;52.368;4.940;2022-08-01T00:28:51;20.30;99.90
40255;DHT22;25973;52.368;4.940;2022-08-01T00:31:16;20.30;99.90
40255;DHT22;25973;52.368;4.940;2022-08-01T00:33:42;20.30;99.90
40255;DHT22;25973;52.368;4.940;2022-08-01T00:36:08;20.30;99.90
40255;DHT22;25973;52.368;4.940;2022-08-01T00:38:33;20.30;99.90
40255;DHT22;25973;52.368;4.940;2022-08-01T00:40:59;20.30;99.90
40255;DHT22;25973;52.368;4.940;2022-08-01T00:43:24;20.30;99.90
40255;DHT22;25973;52.368;4.940;2022-08-01T00:45:50;20.30;99.90
40255;DHT22;25973;52.368;4.940;2022-08-01T00:48:15;20.30;99.90
40255;DHT22;25973;52.368;4.940;2022-08-01T00:50:41;20.20;99.90
40255;DHT22;25973;52.368;4.940;2022-08-01T00:53:07;20.30;99.90
40255;DHT22;25973;52.368;4.940;2022-08-01T00:55:33;20.30;99.90
40255;DHT22;25973;52.368;4.940;2022-08-01T00:57:59;20.30;99.90
40255;DHT22;25973;52.368;4.940;2022-08-01T01:00:25;20.30;99.90
40255;DHT22;25973;52.368;4.940;2022-08-01T01:02:51;20.30;99.90
40255;DHT22;25973;52.368;4.940;2022-08-01T01:05:17;20.30;99.90
40255;DHT22;25973;52.368;4.940;2022-08-01T01:08:07;20.30;99.90
40255;DHT22;25973;52.368;4.940;2022-08-01T01:10:43;20.30;99.90
40255;DHT22;25973;52.368;4.940;2022-08-01T01:13:18;20.30;99.90
40255;DHT22;25973;52.368;4.940;2022-08-01T01:15:57;20.30;99.90
40255;DHT22;25973;52.368;4.940;2022-08-01T01:18:27;20.30;99.90
40255;DHT22;25973;52.368;4.940;2022-08-01T01:24:17;20.30;99.90
40255;DHT22;25973;52.368;4.940;2022-08-01T01:26:55;20.30;99.90
40255;DHT22;25973;52.368;4.940;2022-08-01T01:29:32;20.30;99.90
40255;DHT22;25973;52.368;4.940;2022-08-01T01:32:31;20.30;99.90
40255;DHT22;25973;52.368;4.940;2022-08-01T01:35:08;20.30;99.90
40255;DHT22;25973;52.368;4.940;2022-08-01T01:37:35;20.30;99.90
40255;DHT22;25973;52.368;4.940;2022-08-01T01:40:04;20.30;99.90
40255;DHT22;25973;52.368;4.940;2022-08-01T01:42:31;20.20;99.90
40255;DHT22;25973;52.368;4.940;2022-08-01T01:44:57;20.20;99.90
40255;DHT22;25973;52.368;4.940;2022-08-01T01:47:24;20.20;99.90
40255;DHT22;25973;52.368;4.940;2022-08-01T01:49:52;20.20;99.90
40255;DHT22;25973;52.368;4.940;2022-08-01T01:52:20;20.20;99.90
40255;DHT22;25973;52.368;4.940;2022-08-01T01:54:48;20.20;99.90
40255;DHT22;25973;52.368;4.940;2022-08-01T01:57:15;20.20;99.90
40255;DHT22;25973;52.368;4.940;2022-08-01T01:59:43;20.30;99.90
40255;DHT22;25973;52.368;4.940;2022-08-01T02:02:10;20.30;99.90
40255;DHT22;25973;52.368;4.940;2022-08-01T02:04:40;20.30;99.90
40255;DHT22;25973;52.368;4.940;2022-08-01T02:07:06;20.20;99.90
40255;DHT22;25973;52.368;4.940;2022-08-01T02:09:34;20.30;99.90
40255;DHT22;25973;52.368;4.940;2022-08-01T02:12:02;20.30;99.90
40255;DHT22;25973;52.368;4.940;2022-08-01T02:14:29;20.20;99.90
40255;DHT22;25973;52.368;4.940;2022-08-01T02:16:57;20.20;99.90
40255;DHT22;25973;52.368;4.940;2022-08-01T02:19:24;20.20;99.90
40255;DHT22;25973;52.368;4.940;2022-08-01T02:21:57;20.20;99.90
40255;DHT22;25973;52.368;4.940;2022-08-01T02:24:37;20.20;99.90
40255;DHT22;25973;52.368;4.940;2022-08-01T02:27:10;20.20;99.90
40255;DHT22;25973;52.368;4.940;2022-08-01T02:29:47;20.20;99.90
40255;DHT22;25973;52.368;4.940;2022-08-01T02:32:20;20.20;99.90
40255;DHT22;25973;52.368;4.940;2022-08-01T02:34:49;20.20;99.90
40255;DHT22;25973;52.368;4.940;2022-08-01T02:37:17;20.10;99.90
40255;DHT22;25973;52.368;4.940;2022-08-01T02:39:47;20.10;99.90
40255;DHT22;25973;52.368;4.940;2022-08-01T02:42:18;20.10;99.90
40255;DHT22;25973;52.368;4.940;2022-08-01T02:44:45;20.00;99.90
40255;DHT22;25973;52.368;4.940;2022-08-01T02:47:12;20.00;99.90
40255;DHT22;25973;52.368;4.940;2022-08-01T02:49:42;20.00;99.90
40255;DHT22;25973;52.368;4.940;2022-08-01T02:52:12;20.00;99.90
40255;DHT22;25973;52.368;4.940;2022-08-01T02:54:40;20.00;99.90
40255;DHT22;25973;52.368;4.940;2022-08-01T02:57:06;20.00;99.90
40255;DHT22;25973;52.368;4.940;2022-08-01T02:59:35;19.90;99.90
40255;DHT22;25973;52.368;4.940;2022-08-01T03:02:02;19.90;99.90
40255;DHT22;25973;52.368;4.940;2022-08-01T03:04:31;19.90;99.90
40255;DHT22;25973;52.368;4.940;2022-08-01T03:06:58;19.90;99.90
40255;DHT22;25973;52.368;4.940;2022-08-01T03:09:27;19.90;99.90
40255;DHT22;25973;52.368;4.940;2022-08-01T03:11:57;20.00;99.90
40255;DHT22;25973;52.368;4.940;2022-08-01T03:14:24;19.90;99.90
40255;DHT22;25973;52.368;4.940;2022-08-01T03:16:51;19.90;99.90
40255;DHT22;25973;52.368;4.940;2022-08-01T03:19:18;19.80;99.90
40255;DHT22;25973;52.368;4.940;2022-08-01T03:21:46;19.80;99.90
40255;DHT22;25973;52.368;4.940;2022-08-01T03:24:14;19.80;99.90
40255;DHT22;25973;52.368;4.940;2022-08-01T03:26:41;19.80;99.90
40255;DHT22;25973;52.368;4.940;2022-08-01T03:29:14;19.80;99.90
40255;DHT22;25973;52.368;4.940;2022-08-01T03:31:43;19.80;99.90
40255;DHT22;25973;52.368;4.940;2022-08-01T03:34:10;19.70;99.90
40255;DHT22;25973;52.368;4.940;2022-08-01T03:37:05;19.70;99.90
40255;DHT22;25973;52.368;4.940;2022-08-01T03:39:32;19.60;99.90
40255;DHT22;25973;52.368;4.940;2022-08-01T03:42:07;19.60;99.90
40255;DHT22;25973;52.368;4.940;2022-08-01T03:44:35;19.60;99.90
40255;DHT22;25973;52.368;4.940;2022-08-01T03:47:06;19.60;99.90
40255;DHT22;25973;52.368;4.940;2022-08-01T03:49:35;19.60;99.90
40255;DHT22;25973;52.368;4.940;2022-08-01T03:52:02;19.60;99.90
40255;DHT22;25973;52.368;4.940;2022-08-01T03:54:32;19.60;99.90
40255;DHT22;25973;52.368;4.940;2022-08-01T03:57:00;19.60;99.90
40255;DHT22;25973;52.368;4.940;2022-08-01T03:59:27;19.60;99.90
40255;DHT22;25973;52.368;4.940;2022-08-01T04:01:54;19.60;99.90
40255;DHT22;25973;52.368;4.940;2022-08-01T04:04:20;19.70;99.90
40255;DHT22;25973;52.368;4.940;2022-08-01T04:06:47;19.70;99.90
40255;DHT22;25973;52.368;4.940;2022-08-01T04:09:15;19.70;99.90
40255;DHT22;25973;52.368;4.940;2022-08-01T04:11:41;19.70;99.90
40255;DHT22;25973;52.368;4.940;2022-08-01T04:14:07;19.70;99.90
40255;DHT22;25973;52.368;4.940;2022-08-01T04:16:33;19.70;99.90
40255;DHT22;25973;52.368;4.940;2022-08-01T04:19:00;19.70;99.90
40255;DHT22;25973;52.368;4.940;2022-08-01T04:21:26;19.70;99.90
40255;DHT22;25973;52.368;4.940;2022-08-01T04:23:55;19.60;99.90
40255;DHT22;25973;52.368;4.940;2022-08-01T04:26:24;19.60;99.90
40255;DHT22;25973;52.368;4.940;2022-08-01T04:28:52;19.60;99.90
40255;DHT22;25973;52.368;4.940;2022-08-01T04:31:18;19.60;99.90
40255;DHT22;25973;52.368;4.940;2022-08-01T04:33:48;19.60;99.90
40255;DHT22;25973;52.368;4.940;2022-08-01T04:36:16;19.60;99.90
40255;DHT22;25973;52.368;4.940;2022-08-01T04:38:45;19.60;99.90
40255;DHT22;25973;52.368;4.940;2022-08-01T04:41:12;19.60;99.90
40255;DHT22;25973;52.368;4.940;2022-08-01T04:43:39;19.60;99.90
40255;DHT22;25973;52.368;4.940;2022-08-01T04:46:06;19.70;99.90
40255;DHT22;25973;52.368;4.940;2022-08-01T04:48:32;19.70;99.90
40255;DHT22;25973;52.368;4.940;2022-08-01T04:51:00;19.70;99.90
40255;DHT22;25973;52.368;4.940;2022-08-01T04:53:25;19.70;99.90
40255;DHT22;25973;52.368;4.940;2022-08-01T04:55:51;19.70;99.90
40255;DHT22;25973;52.368;4.940;2022-08-01T04:58:18;19.60;99.90
40255;DHT22;25973;52.368;4.940;2022-08-01T05:00:43;19.60;99.90
40255;DHT22;25973;52.368;4.940;2022-08-01T05:03:09;19.60;99.90
40255;DHT22;25973;52.368;4.940;2022-08-01T05:05:34;19.60;99.90
40255;DHT22;25973;52.368;4.940;2022-08-01T05:08:00;19.60;99.90
40255;DHT22;25973;52.368;4.940;2022-08-01T05:10:26;19.60;99.90
40255;DHT22;25973;52.368;4.940;2022-08-01T05:12:52;19.60;99.90
40255;DHT22;25973;52.368;4.940;2022-08-01T05:15:18;19.60;99.90
40255;DHT22;25973;52.368;4.940;2022-08-01T05:17:44;19.70;99.90
40255;DHT22;25973;52.368;4.940;2022-08-01T05:20:11;19.60;99.90
40255;DHT22;25973;52.368;4.940;2022-08-01T05:22:37;19.60;99.90
40255;DHT22;25973;52.368;4.940;2022-08-01T05:25:03;19.60;99.90
40255;DHT22;25973;52.368;4.940;2022-08-01T05:27:30;19.60;99.90
40255;DHT22;25973;52.368;4.940;2022-08-01T05:29:56;19.70;99.90
40255;DHT22;25973;52.368;4.940;2022-08-01T05:32:21;19.70;99.90
40255;DHT22;25973;52.368;4.940;2022-08-01T05:34:47;19.70;99.90
40255;DHT22;25973;52.368;4.940;2022-08-01T05:37:13;19.80;99.90
40255;DHT22;25973;52.368;4.940;2022-08-01T05:39:38;19.80;99.90
40255;DHT22;25973;52.368;4.940;2022-08-01T05:42:07;19.80;99.90
40255;DHT22;25973;52.368;4.940;2022-08-01T05:44:32;19.80;99.90
40255;DHT22;25973;52.368;4.940;2022-08-01T05:46:58;19.80;99.90
40255;DHT22;25973;52.368;4.940;2022-08-01T05:49:23;19.70;99.90
40255;DHT22;25973;52.368;4.940;2022-08-01T05:51:49;19.70;99.90
40255;DHT22;25973;52.368;4.940;2022-08-01T05:54:14;19.70;99.90
40255;DHT22;25973;52.368;4.940;2022-08-01T05:56:40;19.60;99.90
40255;DHT22;25973;52.368;4.940;2022-08-01T05:59:06;19.60;99.90
40255;DHT22;25973;52.368;4.940;2022-08-01T06:01:31;19.50;99.90
40255;DHT22;25973;52.368;4.940;2022-08-01T06:03:57;19.40;99.90
40255;DHT22;25973;52.368;4.940;2022-08-01T06:06:22;19.40;99.90
40255;DHT22;25973;52.368;4.940;2022-08-01T06:08:48;19.30;99.90
40255;DHT22;25973;52.368;4.940;2022-08-01T06:11:13;19.20;99.90
40255;DHT22;25973;52.368;4.940;2022-08-01T06:13:39;19.20;99.90
40255;DHT22;25973;52.368;4.940;2022-08-01T06:16:05;19.10;99.90
40255;DHT22;25973;52.368;4.940;2022-08-01T06:18:30;19.10;99.90
40255;DHT22;25973;52.368;4.940;2022-08-01T06:20:56;19.00;99.90
40255;DHT22;25973;52.368;4.940;2022-08-01T06:23:22;18.90;99.90
40255;DHT22;25973;52.368;4.940;2022-08-01T06:25:48;19.00;99.90
40255;DHT22;25973;52.368;4.940;2022-08-01T06:28:13;19.00;99.90
40255;DHT22;25973;52.368;4.940;2022-08-01T06:30:39;19.10;99.90
40255;DHT22;25973;52.368;4.940;2022-08-01T06:33:07;19.10;99.90
40255;DHT22;25973;52.368;4.940;2022-08-01T06:35:33;19.20;99.90
40255;DHT22;25973;52.368;4.940;2022-08-01T06:37:59;19.30;99.90
40255;DHT22;25973;52.368;4.940;2022-08-01T06:40:25;19.30;99.90
40255;DHT22;25973;52.368;4.940;2022-08-01T06:42:50;19.50;99.90
40255;DHT22;25973;52.368;4.940;2022-08-01T06:45:16;19.60;99.90
40255;DHT22;25973;52.368;4.940;2022-08-01T06:47:43;19.70;99.90
40255;DHT22;25973;52.368;4.940;2022-08-01T06:50:09;19.90;99.90
40255;DHT22;25973;52.368;4.940;2022-08-01T06:52:35;20.10;99.90
40255;DHT22;25973;52.368;4.940;2022-08-01T06:55:01;20.30;99.90
40255;DHT22;25973;52.368;4.940;2022-08-01T06:57:27;20.50;99.90
40255;DHT22;25973;52.368;4.940;2022-08-01T06:59:53;20.60;99.90
40255;DHT22;25973;52.368;4.940;2022-08-01T07:02:19;20.70;99.90
40255;DHT22;25973;52.368;4.940;2022-08-01T07:04:45;20.80;99.90
40255;DHT22;25973;52.368;4.940;2022-08-01T07:07:11;20.80;99.90
40255;DHT22;25973;52.368;4.940;2022-08-01T07:09:36;20.80;99.90
40255;DHT22;25973;52.368;4.940;2022-08-01T07:12:03;20.90;99.90
40255;DHT22;25973;52.368;4.940;2022-08-01T07:14:28;20.90;99.90
40255;DHT22;25973;52.368;4.940;2022-08-01T07:16:54;20.90;99.90
40255;DHT22;25973;52.368;4.940;2022-08-01T07:19:19;21.00;99.90
40255;DHT22;25973;52.368;4.940;2022-08-01T07:21:45;21.10;99.90
40255;DHT22;25973;52.368;4.940;2022-08-01T07:24:13;21.20;99.90
40255;DHT22;25973;52.368;4.940;2022-08-01T07:26:42;21.20;99.90
40255;DHT22;25973;52.368;4.940;2022-08-01T07:29:08;21.20;99.90
40255;DHT22;25973;52.368;4.940;2022-08-01T07:31:33;21.30;99.90
40255;DHT22;25973;52.368;4.940;2022-08-01T07:33:59;21.40;99.90
40255;DHT22;25973;52.368;4.940;2022-08-01T07:36:25;21.40;99.90
40255;DHT22;25973;52.368;4.940;2022-08-01T07:38:50;21.40;99.90
40255;DHT22;25973;52.368;4.940;2022-08-01T07:41:16;21.40;99.90
40255;DHT22;25973;52.368;4.940;2022-08-01T07:43:41;21.50;99.90
40255;DHT22;25973;52.368;4.940;2022-08-01T07:46:07;21.80;99.90
40255;DHT22;25973;52.368;4.940;2022-08-01T07:48:33;22.50;99.90
40255;DHT22;25973;52.368;4.940;2022-08-01T07:50:59;23.20;99.90
40255;DHT22;25973;52.368;4.940;2022-08-01T07:53:25;23.90;99.90
40255;DHT22;25973;52.368;4.940;2022-08-01T07:55:51;24.50;99.90
40255;DHT22;25973;52.368;4.940;2022-08-01T07:58:16;25.00;99.90
40255;DHT22;25973;52.368;4.940;2022-08-01T08:00:42;25.40;99.90
40255;DHT22;25973;52.368;4.940;2022-08-01T08:03:08;25.80;99.90
40255;DHT22;25973;52.368;4.940;2022-08-01T08:05:34;26.20;99.90
40255;DHT22;25973;52.368;4.940;2022-08-01T08:08:09;26.40;99.90
40255;DHT22;25973;52.368;4.940;2022-08-01T08:10:35;26.70;99.90
40255;DHT22;25973;52.368;4.940;2022-08-01T08:13:01;26.90;99.90
40255;DHT22;25973;52.368;4.940;2022-08-01T08:15:28;27.10;99.90
40255;DHT22;25973;52.368;4.940;2022-08-01T08:17:54;27.20;99.90
40255;DHT22;25973;52.368;4.940;2022-08-01T08:20:20;27.30;99.90
40255;DHT22;25973;52.368;4.940;2022-08-01T08:22:50;27.40;99.90
40255;DHT22;25973;52.368;4.940;2022-08-01T08:25:16;27.40;99.70
40255;DHT22;25973;52.368;4.940;2022-08-01T08:27:41;27.30;99.40
40255;DHT22;25973;52.368;4.940;2022-08-01T08:30:07;27.00;99.90
40255;DHT22;25973;52.368;4.940;2022-08-01T08:32:34;26.80;99.90
40255;DHT22;25973;52.368;4.940;2022-08-01T08:35:00;26.80;99.90
40255;DHT22;25973;52.368;4.940;2022-08-01T08:37:25;26.70;99.90
40255;DHT22;25973;52.368;4.940;2022-08-01T08:39:52;26.70;99.50
40255;DHT22;25973;52.368;4.940;2022-08-01T08:42:18;26.70;99.10
40255;DHT22;25973;52.368;4.940;2022-08-01T08:44:44;26.60;99.40
40255;DHT22;25973;52.368;4.940;2022-08-01T08:47:12;26.50;99.30
40255;DHT22;25973;52.368;4.940;2022-08-01T08:49:38;26.50;99.40
40255;DHT22;25973;52.368;4.940;2022-08-01T08:52:04;26.40;98.50
40255;DHT22;25973;52.368;4.940;2022-08-01T08:54:31;26.50;99.00
40255;DHT22;25973;52.368;4.940;2022-08-01T08:56:59;26.60;98.40
40255;DHT22;25973;52.368;4.940;2022-08-01T08:59:25;26.80;99.10
40255;DHT22;25973;52.368;4.940;2022-08-01T09:01:51;26.90;97.80
40255;DHT22;25973;52.368;4.940;2022-08-01T09:04:17;27.10;97.10
40255;DHT22;25973;52.368;4.940;2022-08-01T09:06:42;27.00;96.80
40255;DHT22;25973;52.368;4.940;2022-08-01T09:09:10;26.90;97.00
40255;DHT22;25973;52.368;4.940;2022-08-01T09:11:36;26.80;97.60
40255;DHT22;25973;52.368;4.940;2022-08-01T09:16:31;26.50;97.40
40255;DHT22;25973;52.368;4.940;2022-08-01T09:21:37;25.80;98.80
40255;DHT22;25973;52.368;4.940;2022-08-01T09:24:03;25.50;99.70
40255;DHT22;25973;52.368;4.940;2022-08-01T09:26:35;25.30;99.80
40255;DHT22;25973;52.368;4.940;2022-08-01T09:29:17;25.20;99.90
40255;DHT22;25973;52.368;4.940;2022-08-01T09:31:44;25.00;99.90
40255;DHT22;25973;52.368;4.940;2022-08-01T09:34:10;24.90;99.90
40255;DHT22;25973;52.368;4.940;2022-08-01T09:36:54;24.90;99.90
40255;DHT22;25973;52.368;4.940;2022-08-01T09:39:24;24.90;99.90
40255;DHT22;25973;52.368;4.940;2022-08-01T09:41:50;24.80;99.90
40255;DHT22;25973;52.368;4.940;2022-08-01T09:44:17;24.50;99.90
40255;DHT22;25973;52.368;4.940;2022-08-01T09:46:51;24.20;99.90
40255;DHT22;25973;52.368;4.940;2022-08-01T09:49:30;24.00;99.90
40255;DHT22;25973;52.368;4.940;2022-08-01T09:51:58;23.70;99.90
40255;DHT22;25973;52.368;4.940;2022-08-01T09:54:33;23.50;99.90
40255;DHT22;25973;52.368;4.940;2022-08-01T09:57:10;23.40;99.90
40255;DHT22;25973;52.368;4.940;2022-08-01T09:59:37;23.40;99.90
40255;DHT22;25973;52.368;4.940;2022-08-01T10:02:05;23.40;99.90
40255;DHT22;25973;52.368;4.940;2022-08-01T10:04:31;23.30;99.90
40255;DHT22;25973;52.368;4.940;2022-08-01T10:07:05;23.10;99.90
40255;DHT22;25973;52.368;4.940;2022-08-01T10:09:33;22.90;99.90
40255;DHT22;25973;52.368;4.940;2022-08-01T10:12:00;22.80;99.90
40255;DHT22;25973;52.368;4.940;2022-08-01T10:14:28;22.70;99.90
40255;DHT22;25973;52.368;4.940;2022-08-01T10:16:56;22.70;99.90
40255;DHT22;25973;52.368;4.940;2022-08-01T10:19:24;22.60;99.90
40255;DHT22;25973;52.368;4.940;2022-08-01T10:21:50;22.50;99.90
40255;DHT22;25973;52.368;4.940;2022-08-01T10:24:20;22.50;99.90
40255;DHT22;25973;52.368;4.940;2022-08-01T10:26:51;22.60;99.90
40255;DHT22;25973;52.368;4.940;2022-08-01T10:29:18;22.70;99.90
40255;DHT22;25973;52.368;4.940;2022-08-01T10:31:46;22.70;99.90
40255;DHT22;25973;52.368;4.940;2022-08-01T10:34:13;22.80;99.90
40255;DHT22;25973;52.368;4.940;2022-08-01T10:36:46;22.90;99.90
40255;DHT22;25973;52.368;4.940;2022-08-01T10:39:12;22.90;99.90
40255;DHT22;25973;52.368;4.940;2022-08-01T10:41:39;22.90;99.90
40255;DHT22;25973;52.368;4.940;2022-08-01T10:44:07;23.10;99.90
40255;DHT22;25973;52.368;4.940;2022-08-01T10:46:35;23.10;99.90
40255;DHT22;25973;52.368;4.940;2022-08-01T10:49:14;23.20;99.90
40255;DHT22;25973;52.368;4.940;2022-08-01T10:51:41;23.40;99.90
40255;DHT22;25973;52.368;4.940;2022-08-01T10:54:09;23.30;99.90
40255;DHT22;25973;52.368;4.940;2022-08-01T10:56:46;23.20;99.90
40255;DHT22;25973;52.368;4.940;2022-08-01T10:59:30;23.20;99.90
40255;DHT22;25973;52.368;4.940;2022-08-01T11:02:04;23.30;99.90
40255;DHT22;25973;52.368;4.940;2022-08-01T11:07:08;23.20;99.90
40255;DHT22;25973;52.368;4.940;2022-08-01T11:09:46;23.10;99.90
40255;DHT22;25973;52.368;4.940;2022-08-01T11:12:14;23.00;99.90
40255;DHT22;25973;52.368;4.940;2022-08-01T11:17:35;22.80;99.90
40255;DHT22;25973;52.368;4.940;2022-08-01T11:20:09;22.80;99.90
40255;DHT22;25973;52.368;4.940;2022-08-01T11:33:11;22.80;99.90
40255;DHT22;25973;52.368;4.940;2022-08-01T11:35:37;22.80;99.90
40255;DHT22;25973;52.368;4.940;2022-08-01T11:38:26;22.90;99.90
40255;DHT22;25973;52.368;4.940;2022-08-01T11:41:15;22.90;99.90
40255;DHT22;25973;52.368;4.940;2022-08-01T11:43:58;22.80;99.90
40255;DHT22;25973;52.368;4.940;2022-08-01T11:47:05;22.90;99.90
40255;DHT22;25973;52.368;4.940;2022-08-01T11:54:42;22.70;99.90
40255;DHT22;25973;52.368;4.940;2022-08-01T11:57:19;22.70;99.90
40255;DHT22;25973;52.368;4.940;2022-08-01T11:59:47;22.70;99.90
40255;DHT22;25973;52.368;4.940;2022-08-01T12:02:33;22.80;99.90
40255;DHT22;25973;52.368;4.940;2022-08-01T12:05:01;22.80;99.90
40255;DHT22;25973;52.368;4.940;2022-08-01T12:07:29;22.80;99.90
40255;DHT22;25973;52.368;4.940;2022-08-01T12:09:59;22.80;99.90
40255;DHT22;25973;52.368;4.940;2022-08-01T12:12:26;22.70;99.90
40255;DHT22;25973;52.368;4.940;2022-08-01T12:14:57;22.70;99.90
40255;DHT22;25973;52.368;4.940;2022-08-01T12:17:40;22.60;99.90
40255;DHT22;25973;52.368;4.940;2022-08-01T12:20:11;22.50;99.90
40255;DHT22;25973;52.368;4.940;2022-08-01T12:22:37;22.60;99.90
40255;DHT22;25973;52.368;4.940;2022-08-01T12:27:36;22.60;99.90
40255;DHT22;25973;52.368;4.940;2022-08-01T12:30:06;22.70;99.90
40255;DHT22;25973;52.368;4.940;2022-08-01T12:32:34;22.80;99.90
40255;DHT22;25973;52.368;4.940;2022-08-01T12:35:05;22.90;99.90
40255;DHT22;25973;52.368;4.940;2022-08-01T12:37:41;23.10;99.90
40255;DHT22;25973;52.368;4.940;2022-08-01T12:40:25;23.20;99.90
40255;DHT22;25973;52.368;4.940;2022-08-01T12:42:59;23.20;99.90
40255;DHT22;25973;52.368;4.940;2022-08-01T12:45:27;23.30;99.90
40255;DHT22;25973;52.368;4.940;2022-08-01T12:47:54;23.40;99.90
40255;DHT22;25973;52.368;4.940;2022-08-01T12:50:24;23.40;99.90
40255;DHT22;25973;52.368;4.940;2022-08-01T12:52:51;23.30;99.90
40255;DHT22;25973;52.368;4.940;2022-08-01T12:55:22;23.20;99.90
40255;DHT22;25973;52.368;4.940;2022-08-01T12:58:03;23.30;99.90
40255;DHT22;25973;52.368;4.940;2022-08-01T13:00:29;23.30;99.90
40255;DHT22;25973;52.368;4.940;2022-08-01T13:05:44;23.40;99.90
40255;DHT22;25973;52.368;4.940;2022-08-01T13:08:12;23.40;99.50
40255;DHT22;25973;52.368;4.940;2022-08-01T13:10:38;23.50;99.90
40255;DHT22;25973;52.368;4.940;2022-08-01T13:13:04;23.40;99.90
40255;DHT22;25973;52.368;4.940;2022-08-01T13:15:34;23.20;99.90
40255;DHT22;25973;52.368;4.940;2022-08-01T13:20:45;23.00;99.90
40255;DHT22;25973;52.368;4.940;2022-08-01T13:23:15;22.90;99.90
40255;DHT22;25973;52.368;4.940;2022-08-01T13:28:15;22.70;99.90
40255;DHT22;25973;52.368;4.940;2022-08-01T13:31:11;22.60;99.90
40255;DHT22;25973;52.368;4.940;2022-08-01T13:33:47;22.60;99.90
40255;DHT22;25973;52.368;4.940;2022-08-01T13:36:13;22.60;99.90
40255;DHT22;25973;52.368;4.940;2022-08-01T13:38:40;22.60;99.90
40255;DHT22;25973;52.368;4.940;2022-08-01T13:41:24;22.50;99.90
40255;DHT22;25973;52.368;4.940;2022-08-01T13:43:50;22.50;99.90
40255;DHT22;25973;52.368;4.940;2022-08-01T13:46:16;22.40;99.90
40255;DHT22;25973;52.368;4.940;2022-08-01T13:48:41;22.40;99.90
40255;DHT22;25973;52.368;4.940;2022-08-01T13:51:07;22.40;99.90
40255;DHT22;25973;52.368;4.940;2022-08-01T13:53:33;22.40;99.90
40255;DHT22;25973;52.368;4.940;2022-08-01T13:55:58;22.40;99.90
40255;DHT22;25973;52.368;4.940;2022-08-01T13:58:24;22.40;99.90
40255;DHT22;25973;52.368;4.940;2022-08-01T14:00:50;22.40;99.90
40255;DHT22;25973;52.368;4.940;2022-08-01T14:03:15;22.50;99.90
40255;DHT22;25973;52.368;4.940;2022-08-01T14:05:43;22.60;99.50
40255;DHT22;25973;52.368;4.940;2022-08-01T14:08:08;22.60;98.90
40255;DHT22;25973;52.368;4.940;2022-08-01T14:10:35;22.70;98.20
40255;DHT22;25973;52.368;4.940;2022-08-01T14:13:00;22.80;98.30
40255;DHT22;25973;52.368;4.940;2022-08-01T14:15:26;22.90;98.50
40255;DHT22;25973;52.368;4.940;2022-08-01T14:17:52;22.80;99.90
40255;DHT22;25973;52.368;4.940;2022-08-01T14:20:17;22.70;99.90
40255;DHT22;25973;52.368;4.940;2022-08-01T14:22:46;22.60;99.90
40255;DHT22;25973;52.368;4.940;2022-08-01T14:25:11;22.40;99.90
40255;DHT22;25973;52.368;4.940;2022-08-01T14:27:37;22.30;99.90
40255;DHT22;25973;52.368;4.940;2022-08-01T14:30:05;22.20;99.90
40255;DHT22;25973;52.368;4.940;2022-08-01T14:32:32;22.20;99.90
40255;DHT22;25973;52.368;4.940;2022-08-01T14:34:59;22.20;99.90
40255;DHT22;25973;52.368;4.940;2022-08-01T14:37:24;22.30;99.90
40255;DHT22;25973;52.368;4.940;2022-08-01T14:39:50;22.30;99.90
40255;DHT22;25973;52.368;4.940;2022-08-01T14:42:15;22.20;99.90
40255;DHT22;25973;52.368;4.940;2022-08-01T14:44:41;22.20;99.90
40255;DHT22;25973;52.368;4.940;2022-08-01T14:47:06;22.10;99.90
40255;DHT22;25973;52.368;4.940;2022-08-01T14:49:32;22.00;99.90
40255;DHT22;25973;52.368;4.940;2022-08-01T14:51:57;21.90;99.90
40255;DHT22;25973;52.368;4.940;2022-08-01T14:54:23;21.80;99.90
40255;DHT22;25973;52.368;4.940;2022-08-01T14:56:49;21.70;99.90
40255;DHT22;25973;52.368;4.940;2022-08-01T14:59:14;21.60;99.90
40255;DHT22;25973;52.368;4.940;2022-08-01T15:01:40;21.50;99.90
40255;DHT22;25973;52.368;4.940;2022-08-01T15:04:05;21.40;99.90
40255;DHT22;25973;52.368;4.940;2022-08-01T15:06:31;21.30;99.90
40255;DHT22;25973;52.368;4.940;2022-08-01T15:08:57;21.20;99.90
40255;DHT22;25973;52.368;4.940;2022-08-01T15:11:22;21.20;99.90
40255;DHT22;25973;52.368;4.940;2022-08-01T15:13:48;21.20;99.90
40255;DHT22;25973;52.368;4.940;2022-08-01T15:16:34;21.10;99.90
40255;DHT22;25973;52.368;4.940;2022-08-01T15:18:59;21.10;99.90
40255;DHT22;25973;52.368;4.940;2022-08-01T15:21:25;21.20;99.90
40255;DHT22;25973;52.368;4.940;2022-08-01T15:23:50;21.20;99.90
40255;DHT22;25973;52.368;4.940;2022-08-01T15:26:16;21.20;99.90
40255;DHT22;25973;52.368;4.940;2022-08-01T15:28:41;21.20;99.90
40255;DHT22;25973;52.368;4.940;2022-08-01T15:31:07;21.10;99.90
40255;DHT22;25973;52.368;4.940;2022-08-01T15:33:32;21.10;99.90
40255;DHT22;25973;52.368;4.940;2022-08-01T15:35:58;21.00;99.90
40255;DHT22;25973;52.368;4.940;2022-08-01T15:38:23;21.00;99.90
40255;DHT22;25973;52.368;4.940;2022-08-01T15:40:49;21.00;99.90
40255;DHT22;25973;52.368;4.940;2022-08-01T15:43:15;20.90;99.90
40255;DHT22;25973;52.368;4.940;2022-08-01T15:45:40;21.00;99.90
40255;DHT22;25973;52.368;4.940;2022-08-01T15:48:06;20.90;99.90
40255;DHT22;25973;52.368;4.940;2022-08-01T15:50:31;21.00;99.90
40255;DHT22;25973;52.368;4.940;2022-08-01T15:52:57;21.00;99.90
40255;DHT22;25973;52.368;4.940;2022-08-01T15:55:22;21.00;99.90
40255;DHT22;25973;52.368;4.940;2022-08-01T15:57:48;21.10;99.90
40255;DHT22;25973;52.368;4.940;2022-08-01T16:00:13;21.10;99.90
40255;DHT22;25973;52.368;4.940;2022-08-01T16:02:39;21.10;99.90
40255;DHT22;25973;52.368;4.940;2022-08-01T16:05:06;21.00;99.90
40255;DHT22;25973;52.368;4.940;2022-08-01T16:07:32;21.00;99.90
40255;DHT22;25973;52.368;4.940;2022-08-01T16:09:57;21.00;99.90
40255;DHT22;25973;52.368;4.940;2022-08-01T16:12:23;20.90;99.90
40255;DHT22;25973;52.368;4.940;2022-08-01T16:14:48;20.90;99.90
40255;DHT22;25973;52.368;4.940;2022-08-01T16:17:14;20.90;99.90